Startpagina
METAR-TAF:

METAR-TAF

Vliegvelden :

Koror, Babelthuap Island, Palau

Roman Tmetuchl International Airport

breedte: 07-22N, lengte: 134-32E, hoogte: 54 m

Actueel weer

Dit bericht is 1 uur en het 6 minuten geleden gemaakt, om 11:50 UTC
Wind 6 kt uit het oostnoordoosten
Temperatuur 28°C
Vochtigheid 84%
Druk 1006 hPa
Zicht: 24.1 km
Verspreide wolken op 1600 ft
Gebroken wolken op 12000 ft
Gebroken wolken op 30000 ft

METAR: PTRO 221150Z 07006KT 15SM SCT016 BKN120 BKN300 28/25 A2972

Tijdstip: 21:56 (12:56 UTC)

Verwachting

Dit bericht is 1 uur en het 23 minuten geleden gemaakt, om 11:33 UTC
Verwachting geldig van 22 om 12 UTC tot 23 om 12 UTC
Wind 9 kt uit het oostnoordoosten
Zicht: 10 km
Verspreide wolken op 1600 ft
Verspreide wolken op 12000 ft
buien in de omgeving

TAF: PTRO 221133Z 2212/2312 07009KT P6SM VCSH SCT016 SCT120

Waarnemingen en weersverwachtingen van meer dan 4000 vliegvelden (METAR en TAF).

De beschikbare stations zijn de gele en rode punten op de kaart.

Ga met uw muis naar het station om de naam te zien.

Klik dan om waarnemingen en weersverwachtingen te zien.

kaart wijzigen: klik op de groene knoppen met een zwart kruis om in te zoomen, op de groene knop met een streepje om uit te zoomen of op de groene pijlen voor aangrenzende kaarten.


METAR-TAF: